createdAt,value
2022-07-25T00:02:00.890Z,99642.81
2022-07-25T00:04:29.766Z,99636.63
2022-07-25T00:06:57.527Z,99637.56
2022-07-25T00:09:25.214Z,99640.19
2022-07-25T00:11:54.149Z,99639.25
2022-07-25T00:14:21.787Z,99638.56
2022-07-25T00:16:49.426Z,99641.97
2022-07-25T00:19:17.172Z,99638.34
2022-07-25T00:21:44.837Z,99644.88
2022-07-25T00:24:12.653Z,99645.28
2022-07-25T00:26:40.777Z,99645.69
2022-07-25T00:29:09.925Z,99645.97
2022-07-25T00:31:38.781Z,99635.47
2022-07-25T00:34:06.849Z,99640.72
2022-07-25T00:36:34.933Z,99640.66
2022-07-25T00:39:02.545Z,99629.16
2022-07-25T00:41:30.100Z,99634.53
2022-07-25T00:43:57.710Z,99636.41
2022-07-25T00:46:26.690Z,99630.44
2022-07-25T00:48:54.937Z,99630.72
2022-07-25T00:51:23.681Z,99630.00
2022-07-25T00:53:51.313Z,99622.06
2022-07-25T00:56:18.926Z,99626.34
2022-07-25T00:58:46.689Z,99629.03
2022-07-25T01:01:14.472Z,99622.13
2022-07-25T01:03:43.509Z,99612.50
2022-07-25T01:06:11.161Z,99611.78
2022-07-25T01:08:39.851Z,99615.25
2022-07-25T01:11:08.111Z,99612.81
2022-07-25T01:13:35.880Z,99611.44
2022-07-25T01:16:04.011Z,99606.44
2022-07-25T01:18:31.990Z,99606.53
2022-07-25T01:21:01.404Z,99607.53
2022-07-25T01:23:29.053Z,99603.09
2022-07-25T01:25:56.847Z,99598.56
2022-07-25T01:28:24.501Z,99601.31
2022-07-25T01:30:52.339Z,99589.09
2022-07-25T01:33:22.070Z,99601.19
2022-07-25T01:35:51.032Z,99594.97
2022-07-25T01:38:20.165Z,99594.06
2022-07-25T01:40:47.784Z,99592.47
2022-07-25T01:43:15.412Z,99591.44
2022-07-25T01:45:43.059Z,99590.63
2022-07-25T01:48:10.973Z,99590.53
2022-07-25T01:50:38.639Z,99585.28
2022-07-25T01:53:06.599Z,99585.41
2022-07-25T01:55:35.750Z,99576.88
2022-07-25T01:58:04.577Z,99577.03
2022-07-25T02:00:34.428Z,99573.78
2022-07-25T02:03:19.805Z,99573.78
2022-07-25T02:05:47.494Z,99573.00
2022-07-25T02:08:15.121Z,99567.16
2022-07-25T02:10:44.236Z,99562.16
2022-07-25T02:13:11.942Z,99564.94
2022-07-25T02:15:39.766Z,99566.63
2022-07-25T02:18:07.480Z,99565.03
2022-07-25T02:20:35.303Z,99562.31
2022-07-25T02:23:03.792Z,99565.69
2022-07-25T02:25:31.840Z,99562.25
2022-07-25T02:28:01.401Z,99563.06
2022-07-25T02:30:29.210Z,99563.88
2022-07-25T02:32:56.922Z,99567.31
2022-07-25T02:35:24.634Z,99555.19
2022-07-25T02:37:52.349Z,99558.78
2022-07-25T02:40:19.981Z,99559.81
2022-07-25T02:42:47.670Z,99565.03
2022-07-25T02:45:16.771Z,99564.13
2022-07-25T02:47:44.481Z,99559.75
2022-07-25T02:50:14.967Z,99563.16
2022-07-25T02:52:42.862Z,99555.53
2022-07-25T02:55:11.931Z,99553.34
2022-07-25T02:57:39.661Z,99556.63
2022-07-25T03:00:08.831Z,99555.13
2022-07-25T03:02:37.961Z,99555.41
2022-07-25T03:05:08.227Z,99556.38
2022-07-25T03:07:36.081Z,99556.44
2022-07-25T03:10:03.955Z,99558.03
2022-07-25T03:12:39.584Z,99557.66
2022-07-25T03:15:08.489Z,99554.88
2022-07-25T03:17:36.227Z,99552.25
2022-07-25T03:20:05.945Z,99551.84
2022-07-25T03:22:33.855Z,99555.50
2022-07-25T03:25:01.749Z,99546.97
2022-07-25T03:27:29.605Z,99556.44
2022-07-25T03:29:58.205Z,99551.84
2022-07-25T03:32:25.793Z,99550.00
2022-07-25T03:34:53.508Z,99549.25
2022-07-25T03:37:23.806Z,99550.06
2022-07-25T03:39:51.387Z,99556.31
2022-07-25T03:42:22.396Z,99545.69
2022-07-25T03:44:52.864Z,99541.59
2022-07-25T03:47:21.009Z,99544.16
2022-07-25T03:49:48.722Z,99532.44
2022-07-25T03:52:16.365Z,99532.00
2022-07-25T03:54:45.294Z,99535.91
2022-07-25T03:57:12.930Z,99541.75
2022-07-25T03:59:40.581Z,99532.88
2022-07-25T04:02:08.258Z,99536.88
2022-07-25T04:04:36.019Z,99541.88
2022-07-25T04:07:03.840Z,99531.13
2022-07-25T04:09:33.735Z,99533.63
2022-07-25T04:12:04.231Z,99541.31
2022-07-25T04:14:32.089Z,99541.59
2022-07-25T04:16:59.864Z,99541.84
2022-07-25T04:19:28.277Z,99546.06
2022-07-25T04:21:56.864Z,99542.44
2022-07-25T04:24:24.525Z,99537.56
2022-07-25T04:26:52.165Z,99529.28
2022-07-25T04:29:21.220Z,99539.06
2022-07-25T04:31:49.000Z,99530.22
2022-07-25T04:34:16.697Z,99529.81
2022-07-25T04:36:44.325Z,99528.22
2022-07-25T04:39:11.996Z,99523.34
2022-07-25T04:41:39.634Z,99529.63
2022-07-25T04:44:08.758Z,99533.28
2022-07-25T04:46:38.170Z,99532.56
2022-07-25T04:49:05.927Z,99533.63
2022-07-25T04:51:35.747Z,99537.84
2022-07-25T04:54:04.083Z,99529.00
2022-07-25T04:56:31.971Z,99530.88
2022-07-25T04:59:03.273Z,99526.59
2022-07-25T05:01:34.565Z,99520.59
2022-07-25T05:04:04.076Z,99523.25
2022-07-25T05:06:32.021Z,99518.88
2022-07-25T05:08:59.753Z,99511.03
2022-07-25T05:11:27.353Z,99510.16
2022-07-25T05:13:54.949Z,99513.47
2022-07-25T05:16:22.607Z,99522.81
2022-07-25T05:18:50.336Z,99512.88
2022-07-25T05:21:19.329Z,99514.06
2022-07-25T05:23:46.989Z,99508.31
2022-07-25T05:26:14.640Z,99511.53
2022-07-25T05:28:42.271Z,99507.88
2022-07-25T05:31:09.985Z,99507.72
2022-07-25T05:33:37.677Z,99503.16
2022-07-25T05:36:05.965Z,99505.63
2022-07-25T05:38:34.924Z,99499.97
2022-07-25T05:41:02.608Z,99500.53
2022-07-25T05:43:30.262Z,99497.50
2022-07-25T05:46:01.561Z,99498.94
2022-07-25T05:48:29.368Z,99497.06
2022-07-25T05:50:59.057Z,99495.81
2022-07-25T05:53:26.723Z,99496.53
2022-07-25T05:55:55.739Z,99494.63
2022-07-25T05:58:29.105Z,99502.34
2022-07-25T06:00:57.927Z,99498.63
2022-07-25T06:03:25.759Z,99500.19
2022-07-25T06:05:53.559Z,99493.97
2022-07-25T06:08:21.221Z,99494.63
2022-07-25T06:10:50.290Z,99496.13
2022-07-25T06:13:20.225Z,99496.63
2022-07-25T06:15:48.609Z,99499.94
2022-07-25T06:18:16.354Z,99494.44
2022-07-25T06:20:44.064Z,99488.91
2022-07-25T06:23:11.847Z,99489.50
2022-07-25T06:25:39.517Z,99489.25
2022-07-25T06:28:07.185Z,99491.63
2022-07-25T06:30:39.664Z,99487.06
2022-07-25T06:33:07.327Z,99480.66
2022-07-25T06:35:35.022Z,99483.81
2022-07-25T06:38:02.679Z,99480.91
2022-07-25T06:40:30.297Z,99485.94
2022-07-25T06:42:58.636Z,99481.34
2022-07-25T06:45:27.321Z,99484.56
2022-07-25T06:47:56.333Z,99480.69
2022-07-25T06:50:23.981Z,99482.13
2022-07-25T06:52:51.632Z,99481.81
2022-07-25T06:55:19.714Z,99484.13
2022-07-25T06:57:47.873Z,99488.22
2022-07-25T07:00:16.167Z,99472.03
2022-07-25T07:02:52.187Z,99469.78
2022-07-25T07:05:21.946Z,99470.31
2022-07-25T07:07:49.669Z,99470.66
2022-07-25T07:10:17.966Z,99473.72
2022-07-25T07:12:45.890Z,99461.00
2022-07-25T07:15:14.095Z,99459.63
2022-07-25T07:17:41.801Z,99465.19
2022-07-25T07:20:10.684Z,99465.72
2022-07-25T07:22:46.351Z,99459.91
2022-07-25T07:25:15.863Z,99461.19
2022-07-25T07:27:43.983Z,99454.31
2022-07-25T07:30:14.666Z,99460.72
2022-07-25T07:32:43.361Z,99458.38
2022-07-25T07:35:12.145Z,99461.53
2022-07-25T07:37:43.447Z,99463.59
2022-07-25T07:40:16.797Z,99453.31
2022-07-25T07:42:47.246Z,99454.75
2022-07-25T07:45:16.759Z,99461.34
2022-07-25T07:47:46.756Z,99459.06
2022-07-25T07:50:14.718Z,99461.28
2022-07-25T07:52:42.447Z,99457.25
2022-07-25T07:55:29.775Z,99456.06
2022-07-25T07:57:59.480Z,99454.72
2022-07-25T08:00:30.291Z,99455.91
2022-07-25T08:02:59.892Z,99461.34
2022-07-25T08:05:29.570Z,99466.97
2022-07-25T08:07:57.826Z,99460.81
2022-07-25T08:10:28.859Z,99461.38
2022-07-25T08:12:56.904Z,99454.53
2022-07-25T08:15:24.530Z,99462.63
2022-07-25T08:17:53.179Z,99463.69
2022-07-25T08:20:37.360Z,99469.22
2022-07-25T08:23:06.433Z,99461.53
2022-07-25T08:25:36.106Z,99469.13
2022-07-25T08:28:06.211Z,99468.00
2022-07-25T08:30:34.802Z,99462.19
2022-07-25T08:33:04.469Z,99465.03
2022-07-25T08:35:33.257Z,99471.72
2022-07-25T08:38:01.789Z,99465.03
2022-07-25T08:40:31.556Z,99462.84
2022-07-25T08:43:01.230Z,99474.03
2022-07-25T08:45:29.827Z,99468.03
2022-07-25T08:47:57.843Z,99466.13
2022-07-25T08:50:28.122Z,99463.28
2022-07-25T08:53:10.334Z,99469.88
2022-07-25T08:55:45.617Z,99468.19
2022-07-25T08:58:16.452Z,99478.19
2022-07-25T09:00:44.906Z,99472.97
2022-07-25T09:03:13.146Z,99465.59
2022-07-25T09:05:41.150Z,99467.09
2022-07-25T09:08:10.996Z,99464.97
2022-07-25T09:10:40.656Z,99450.41
2022-07-25T09:13:13.970Z,99444.91
2022-07-25T09:15:46.402Z,99439.00
2022-07-25T09:18:16.925Z,99438.81
2022-07-25T09:20:46.856Z,99443.72
2022-07-25T09:23:16.066Z,99441.44
2022-07-25T09:25:43.704Z,99439.50
2022-07-25T09:28:16.074Z,99434.34
2022-07-25T09:30:55.970Z,99434.31
2022-07-25T09:33:24.909Z,99435.16
2022-07-25T09:35:54.025Z,99430.72
2022-07-25T09:38:24.177Z,99425.84
2022-07-25T09:40:56.383Z,99432.09
2022-07-25T09:43:24.631Z,99431.16
2022-07-25T09:45:53.188Z,99421.69
2022-07-25T09:48:22.197Z,99415.88
2022-07-25T09:50:51.346Z,99418.84
2022-07-25T09:53:20.944Z,99426.31
2022-07-25T09:55:48.537Z,99400.78
2022-07-25T09:58:16.162Z,99410.97
2022-07-25T10:00:44.117Z,99408.13
2022-07-25T10:03:25.441Z,99407.47
2022-07-25T10:06:08.853Z,99396.66
2022-07-25T10:08:38.311Z,99408.16
2022-07-25T10:11:06.829Z,99393.91
2022-07-25T10:13:38.195Z,99387.38
2022-07-25T10:16:15.977Z,99389.59
2022-07-25T10:18:50.374Z,99386.09
2022-07-25T10:21:28.197Z,99386.75
2022-07-25T10:24:02.393Z,99394.09
2022-07-25T10:26:30.659Z,99379.41
2022-07-25T10:28:59.048Z,99383.63
2022-07-25T10:31:35.611Z,99386.66
2022-07-25T10:34:05.670Z,99380.09
2022-07-25T10:36:45.127Z,99380.59
2022-07-25T10:39:15.512Z,99400.25
2022-07-25T10:41:53.794Z,99394.28
2022-07-25T10:44:22.086Z,99385.44
2022-07-25T10:46:50.216Z,99380.03
2022-07-25T10:49:23.648Z,99373.34
2022-07-25T10:52:00.350Z,99376.88
2022-07-25T10:54:34.850Z,99380.09
2022-07-25T10:57:02.876Z,99378.72
2022-07-25T10:59:33.619Z,99379.69
2022-07-25T11:02:01.636Z,99375.66
2022-07-25T11:04:29.355Z,99375.97
2022-07-25T11:06:58.973Z,99372.94
2022-07-25T11:09:28.828Z,99368.69
2022-07-25T11:11:58.635Z,99368.44
2022-07-25T11:14:31.092Z,99365.47
2022-07-25T11:16:59.222Z,99362.47
2022-07-25T11:19:29.257Z,99369.97
2022-07-25T11:21:59.743Z,99357.41
2022-07-25T11:24:35.832Z,99361.28
2022-07-25T11:27:08.376Z,99355.66
2022-07-25T11:29:39.551Z,99348.44
2022-07-25T11:32:10.136Z,99350.56
2022-07-25T11:34:39.217Z,99350.16
2022-07-25T11:37:11.821Z,99352.91
2022-07-25T11:39:42.159Z,99349.19
2022-07-25T11:42:11.241Z,99350.69
2022-07-25T11:44:47.454Z,99337.66
2022-07-25T11:47:25.449Z,99342.25
2022-07-25T11:49:54.725Z,99345.00
2022-07-25T11:52:26.123Z,99345.34
2022-07-25T11:54:54.748Z,99358.84
2022-07-25T11:57:24.018Z,99344.69
2022-07-25T11:59:51.726Z,99340.09
2022-07-25T12:02:24.093Z,99344.69
2022-07-25T12:04:58.292Z,99342.16
2022-07-25T12:07:37.681Z,99335.88
2022-07-25T12:10:06.412Z,99335.47
2022-07-25T12:12:43.493Z,99329.06
2022-07-25T12:15:12.336Z,99330.69
2022-07-25T12:17:41.449Z,99316.31
2022-07-25T12:20:15.406Z,99324.13
2022-07-25T12:22:45.007Z,99311.59
2022-07-25T12:25:12.949Z,99314.44
2022-07-25T12:27:41.285Z,99318.00
2022-07-25T12:30:10.332Z,99325.31
2022-07-25T12:32:38.534Z,99304.19
2022-07-25T12:35:07.811Z,99321.09
2022-07-25T12:37:35.605Z,99322.78
2022-07-25T12:40:05.301Z,99297.72
2022-07-25T12:42:32.950Z,99293.75
2022-07-25T12:45:00.527Z,99288.31
2022-07-25T12:47:29.385Z,99287.03
2022-07-25T12:49:57.200Z,99286.00
2022-07-25T12:52:24.903Z,99276.69
2022-07-25T12:54:52.610Z,99280.84
2022-07-25T12:57:21.627Z,99285.81
2022-07-25T12:59:49.485Z,99269.22
2022-07-25T13:02:17.130Z,99266.84
2022-07-25T13:04:45.188Z,99269.06
2022-07-25T13:07:14.063Z,99268.97
2022-07-25T13:09:41.844Z,99283.13
2022-07-25T13:12:13.487Z,99297.56
2022-07-25T13:14:45.136Z,99291.72
2022-07-25T13:17:12.945Z,99296.66
2022-07-25T13:19:40.583Z,99297.81
2022-07-25T13:22:08.253Z,99303.75
2022-07-25T13:24:35.925Z,99302.53
2022-07-25T13:27:04.223Z,99310.06
2022-07-25T13:29:32.147Z,99305.03
2022-07-25T13:32:01.469Z,99295.78
2022-07-25T13:34:30.708Z,99301.50
2022-07-25T13:36:58.352Z,99311.50
2022-07-25T13:39:27.133Z,99313.88
2022-07-25T13:41:54.972Z,99309.97
2022-07-25T13:44:22.575Z,99297.44
2022-07-25T13:46:50.403Z,99295.50
2022-07-25T13:49:19.864Z,99298.31
2022-07-25T13:51:47.602Z,99290.97
2022-07-25T13:54:15.271Z,99290.28
2022-07-25T13:56:43.174Z,99300.19
2022-07-25T13:59:15.986Z,99281.88
2022-07-25T14:01:47.373Z,99283.28
2022-07-25T14:04:15.089Z,99282.81
2022-07-25T14:06:44.331Z,99279.81
2022-07-25T14:09:12.091Z,99277.09
2022-07-25T14:11:39.824Z,99281.00
2022-07-25T14:14:07.560Z,99288.19
2022-07-25T14:16:35.263Z,99289.53
2022-07-25T14:19:03.208Z,99295.91
2022-07-25T14:21:31.120Z,99298.16
2022-07-25T14:24:01.467Z,99291.25
2022-07-25T14:26:30.940Z,99301.84
2022-07-25T14:28:58.627Z,99312.69
2022-07-25T14:31:27.037Z,99313.56
2022-07-25T14:33:54.879Z,99329.44
2022-07-25T14:36:22.610Z,99346.41
2022-07-25T14:38:50.202Z,99352.47
2022-07-25T14:41:19.194Z,99342.28
2022-07-25T14:43:46.912Z,99347.44
2022-07-25T14:46:15.506Z,99349.06
2022-07-25T14:48:43.362Z,99352.47
2022-07-25T14:51:11.055Z,99353.31
2022-07-25T14:53:38.676Z,99337.47
2022-07-25T14:56:07.275Z,99331.97
2022-07-25T14:58:38.084Z,99332.25
2022-07-25T15:01:06.367Z,99331.19
2022-07-25T15:03:34.127Z,99321.50
2022-07-25T15:06:01.975Z,99322.22
2022-07-25T15:08:29.817Z,99323.22
2022-07-25T15:10:57.462Z,99328.31
2022-07-25T15:13:32.658Z,99322.53
2022-07-25T15:16:03.600Z,99319.56
2022-07-25T15:18:31.973Z,99316.44
2022-07-25T15:20:59.678Z,99317.56
2022-07-25T15:23:30.338Z,99307.38
2022-07-25T15:26:01.798Z,99312.19
2022-07-25T15:28:30.444Z,99307.69
2022-07-25T15:30:58.148Z,99301.19
2022-07-25T15:33:27.263Z,99305.63
2022-07-25T15:35:55.800Z,99300.00
2022-07-25T15:38:23.806Z,99304.59
2022-07-25T15:40:51.683Z,99302.53
2022-07-25T15:43:19.389Z,99301.19
2022-07-25T15:45:47.414Z,99298.59
2022-07-25T15:48:17.084Z,99298.09
2022-07-25T15:50:48.051Z,99295.66
2022-07-25T15:53:17.044Z,99300.88
2022-07-25T15:55:44.864Z,99300.75
2022-07-25T15:58:12.721Z,99298.31
2022-07-25T16:00:41.501Z,99292.75
2022-07-25T16:03:09.761Z,99300.31
2022-07-25T16:05:39.085Z,99297.91
2022-07-25T16:08:09.791Z,99301.25
2022-07-25T16:10:38.075Z,99306.75
2022-07-25T16:13:05.941Z,99307.22
2022-07-25T16:15:33.638Z,99305.38
2022-07-25T16:18:03.011Z,99296.44
2022-07-25T16:20:32.134Z,99302.13
2022-07-25T16:23:00.331Z,99306.59
2022-07-25T16:25:30.440Z,99309.78
2022-07-25T16:27:58.833Z,99312.38
2022-07-25T16:30:27.684Z,99323.53
2022-07-25T16:32:55.735Z,99308.56
2022-07-25T16:35:24.084Z,99305.44
2022-07-25T16:37:52.025Z,99313.34
2022-07-25T16:40:19.667Z,99305.16
2022-07-25T16:42:50.466Z,99323.59
2022-07-25T16:45:18.089Z,99307.56
2022-07-25T16:47:45.753Z,99326.50
2022-07-25T16:50:13.417Z,99310.28
2022-07-25T16:52:41.018Z,99318.41
2022-07-25T16:55:09.416Z,99314.16
2022-07-25T16:57:38.837Z,99326.22
2022-07-25T17:00:10.152Z,99323.47
2022-07-25T17:02:37.975Z,99320.91
2022-07-25T17:05:06.428Z,99325.34
2022-07-25T17:07:34.559Z,99336.53
2022-07-25T17:10:03.776Z,99343.97
2022-07-25T17:12:31.450Z,99342.13
2022-07-25T17:14:59.089Z,99341.22
2022-07-25T17:17:28.545Z,99363.97
2022-07-25T17:19:59.848Z,99367.38
2022-07-25T17:22:27.866Z,99358.59
2022-07-25T17:24:55.492Z,99361.78
2022-07-25T17:27:23.177Z,99355.91
2022-07-25T17:29:50.979Z,99361.69
2022-07-25T17:32:18.686Z,99365.59
2022-07-25T17:34:47.638Z,99376.81
2022-07-25T17:37:15.283Z,99362.84
2022-07-25T17:39:42.959Z,99373.47
2022-07-25T17:42:10.570Z,99388.59
2022-07-25T17:44:38.286Z,99389.63
2022-07-25T17:47:07.055Z,99393.56
2022-07-25T17:49:34.666Z,99411.44
2022-07-25T17:52:03.660Z,99395.56
2022-07-25T17:54:31.386Z,99413.31
2022-07-25T17:56:59.359Z,99430.78
2022-07-25T17:59:27.253Z,99417.25
2022-07-25T18:01:54.868Z,99423.50
2022-07-25T18:04:23.149Z,99418.75
2022-07-25T18:06:50.938Z,99425.69
2022-07-25T18:09:20.257Z,99425.69
2022-07-25T18:11:48.368Z,99421.22
2022-07-25T18:14:15.964Z,99435.88
2022-07-25T18:16:45.296Z,99433.63
2022-07-25T18:19:13.291Z,99439.63
2022-07-25T18:21:40.984Z,99430.41
2022-07-25T18:24:09.315Z,99435.19
2022-07-25T18:26:39.597Z,99442.56
2022-07-25T18:29:08.048Z,99435.44
2022-07-25T18:31:36.092Z,99447.88
2022-07-25T18:34:04.748Z,99453.47
2022-07-25T18:36:32.782Z,99456.88
2022-07-25T18:39:00.457Z,99447.91
2022-07-25T18:41:29.960Z,99457.31
2022-07-25T18:44:01.033Z,99451.75
2022-07-25T18:46:29.713Z,99452.38
2022-07-25T18:48:58.818Z,99453.22
2022-07-25T18:51:26.528Z,99454.31
2022-07-25T18:53:54.206Z,99466.06
2022-07-25T18:56:21.934Z,99472.66
2022-07-25T18:58:49.680Z,99477.53
2022-07-25T19:01:18.711Z,99479.78
2022-07-25T19:03:46.435Z,99489.19
2022-07-25T19:06:14.677Z,99484.25
2022-07-25T19:08:43.751Z,99493.31
2022-07-25T19:11:11.422Z,99492.72
2022-07-25T19:13:49.527Z,99499.31
2022-07-25T19:16:20.516Z,99504.00
2022-07-25T19:18:48.986Z,99503.72
2022-07-25T19:21:16.733Z,99504.81
2022-07-25T19:23:50.120Z,99513.25
2022-07-25T19:26:18.598Z,99516.50
2022-07-25T19:28:46.402Z,99520.56
2022-07-25T19:31:15.052Z,99521.75
2022-07-25T19:33:45.628Z,99525.69
2022-07-25T19:36:13.542Z,99522.75
2022-07-25T19:38:41.153Z,99529.47
2022-07-25T19:41:09.469Z,99530.84
2022-07-25T19:43:37.085Z,99539.16
2022-07-25T19:46:04.865Z,99542.03
2022-07-25T19:48:32.553Z,99544.53
2022-07-25T19:51:01.673Z,99551.84
2022-07-25T19:53:29.321Z,99548.41
2022-07-25T19:55:56.932Z,99560.00
2022-07-25T19:58:24.677Z,99563.56
2022-07-25T20:00:52.363Z,99561.16
2022-07-25T20:03:23.288Z,99562.41
2022-07-25T20:05:51.933Z,99565.44
2022-07-25T20:08:21.388Z,99558.44
2022-07-25T20:10:49.248Z,99573.94
2022-07-25T20:13:17.556Z,99573.47
2022-07-25T20:15:45.352Z,99575.75
2022-07-25T20:18:19.117Z,99587.47
2022-07-25T20:20:47.549Z,99589.63
2022-07-25T20:23:15.787Z,99593.50
2022-07-25T20:25:44.922Z,99606.84
2022-07-25T20:28:13.060Z,99607.38
2022-07-25T20:30:40.938Z,99617.38
2022-07-25T20:33:09.829Z,99620.47
2022-07-25T20:35:38.213Z,99626.16
2022-07-25T20:38:14.600Z,99633.56
2022-07-25T20:40:49.489Z,99625.03
2022-07-25T20:43:19.781Z,99631.66
2022-07-25T20:45:47.918Z,99638.25
2022-07-25T20:48:16.009Z,99646.63
2022-07-25T20:50:44.374Z,99652.31
2022-07-25T20:53:12.449Z,99648.34
2022-07-25T20:55:40.321Z,99655.72
2022-07-25T20:58:08.158Z,99655.94
2022-07-25T21:00:37.300Z,99661.34
2022-07-25T21:03:05.381Z,99662.47
2022-07-25T21:05:37.513Z,99659.22
2022-07-25T21:08:05.287Z,99662.16
2022-07-25T21:10:33.210Z,99669.38
2022-07-25T21:13:00.865Z,99675.78
2022-07-25T21:15:28.592Z,99676.63
2022-07-25T21:17:58.026Z,99681.19
2022-07-25T21:20:25.665Z,99687.72
2022-07-25T21:22:55.489Z,99687.81
2022-07-25T21:25:23.453Z,99698.47
2022-07-25T21:27:51.193Z,99691.69
2022-07-25T21:30:18.852Z,99693.63
2022-07-25T21:32:46.544Z,99695.72
2022-07-25T21:35:16.754Z,99697.59
2022-07-25T21:37:44.777Z,99690.03
2022-07-25T21:40:12.581Z,99691.28
2022-07-25T21:42:40.293Z,99688.03
2022-07-25T21:45:08.924Z,99702.09
2022-07-25T21:47:36.533Z,99701.56
2022-07-25T21:50:24.984Z,99699.13
2022-07-25T21:52:54.807Z,99705.63
2022-07-25T21:55:22.785Z,99710.31
2022-07-25T21:57:51.201Z,99708.53
2022-07-25T22:00:20.231Z,99709.47
2022-07-25T22:02:48.213Z,99710.94
2022-07-25T22:05:18.820Z,99716.69
2022-07-25T22:07:48.098Z,99717.53
2022-07-25T22:10:19.312Z,99718.19
2022-07-25T22:12:47.041Z,99718.09
2022-07-25T22:15:17.872Z,99717.16
2022-07-25T22:17:49.655Z,99719.78
2022-07-25T22:20:18.610Z,99716.81
2022-07-25T22:22:46.603Z,99717.88
2022-07-25T22:25:14.369Z,99719.78
2022-07-25T22:27:43.917Z,99721.53
2022-07-25T22:30:18.441Z,99731.19
2022-07-25T22:32:46.798Z,99727.59
2022-07-25T22:35:14.414Z,99719.72
2022-07-25T22:37:42.047Z,99711.00
2022-07-25T22:40:10.551Z,99717.19
2022-07-25T22:42:38.163Z,99722.56
2022-07-25T22:45:08.306Z,99719.81
2022-07-25T22:47:35.867Z,99710.06
2022-07-25T22:50:03.896Z,99719.88
2022-07-25T22:52:31.619Z,99718.88
2022-07-25T22:54:59.350Z,99718.75
2022-07-25T22:57:27.117Z,99718.50
2022-07-25T22:59:54.809Z,99717.28
2022-07-25T23:02:23.757Z,99727.13
2022-07-25T23:04:51.349Z,99735.75
2022-07-25T23:07:19.083Z,99736.06
2022-07-25T23:09:46.713Z,99733.09
2022-07-25T23:12:14.357Z,99736.25
2022-07-25T23:14:42.018Z,99729.06
2022-07-25T23:17:19.904Z,99729.81
2022-07-25T23:19:51.040Z,99735.47
2022-07-25T23:22:19.668Z,99739.53
2022-07-25T23:24:47.341Z,99732.44
2022-07-25T23:27:15.084Z,99742.69
2022-07-25T23:29:43.197Z,99742.06
2022-07-25T23:32:10.920Z,99741.72
2022-07-25T23:34:38.534Z,99748.28
2022-07-25T23:37:07.798Z,99749.81
2022-07-25T23:39:35.463Z,99745.41
2022-07-25T23:42:03.688Z,99753.44
2022-07-25T23:44:31.575Z,99754.44
2022-07-25T23:46:59.739Z,99762.25
2022-07-25T23:49:29.286Z,99760.56
2022-07-25T23:51:57.417Z,99762.34
2022-07-25T23:54:26.433Z,99767.44
2022-07-25T23:56:54.613Z,99766.50
2022-07-25T23:59:22.216Z,99773.56
